TimeEDT,TemperatureF,Dew PointF,Humidity,Sea Level PressureIn,VisibilityMPH,Wind Direction,Wind SpeedMPH,Gust SpeedMPH,PrecipitationIn,Events,Conditions,WindDirDegrees,DateUTC
12:53 AM,71.1,70.0,96,29.82,10.0,SSW,6.9,-,N/A,,Clear,210,2012-10-19 04:53:00
1:53 AM,72.0,69.1,91,29.81,10.0,SW,8.1,-,N/A,,Clear,220,2012-10-19 05:53:00
2:53 AM,71.1,69.1,93,29.79,10.0,WSW,6.9,-,N/A,,Clear,240,2012-10-19 06:53:00
3:53 AM,72.0,69.1,91,29.77,10.0,SSW,8.1,-,N/A,,Clear,210,2012-10-19 07:53:00
4:53 AM,72.0,69.1,91,29.76,9.0,SW,9.2,-,N/A,,Partly Cloudy,220,2012-10-19 08:53:00
5:53 AM,72.0,68.0,87,29.77,10.0,SW,6.9,-,N/A,,Mostly Cloudy,230,2012-10-19 09:53:00
6:21 AM,71.6,68.0,88,29.78,10.0,WNW,9.2,-,N/A,Thunderstorm,Overcast,290,2012-10-19 10:21:00
6:31 AM,71.6,66.2,83,29.78,2.5,Calm,Calm,-,0.07,Rain,Heavy Rain,0,2012-10-19 10:31:00
6:44 AM,69.8,66.2,88,29.78,9.0,West,3.5,-,0.08,Rain,Light Rain,280,2012-10-19 10:44:00
6:53 AM,69.1,66.9,93,29.79,7.0,SW,5.8,-,0.09,Rain,Light Rain,230,2012-10-19 10:53:00
7:08 AM,69.8,66.2,88,29.79,2.5,West,4.6,-,0.07,Rain,Rain,270,2012-10-19 11:08:00
7:17 AM,69.8,66.2,88,29.79,5.0,West,4.6,-,0.08,Rain,Light Rain,280,2012-10-19 11:17:00
7:53 AM,69.1,66.9,93,29.80,9.0,West,3.5,-,0.11,,Overcast,270,2012-10-19 11:53:00
8:53 AM,69.1,68.0,96,29.79,7.0,Calm,Calm,-,0.03,,Mostly Cloudy,0,2012-10-19 12:53:00
9:25 AM,69.8,68.0,94,29.80,10.0,Calm,Calm,-,N/A,,Mostly Cloudy,0,2012-10-19 13:25:00
9:53 AM,71.1,66.9,87,29.81,10.0,West,6.9,-,N/A,,Mostly Cloudy,270,2012-10-19 13:53:00
10:53 AM,72.0,64.9,78,29.82,10.0,Variable,4.6,-,N/A,,Mostly Cloudy,0,2012-10-19 14:53:00
11:53 AM,73.9,60.1,62,29.83,10.0,Variable,4.6,-,N/A,,Clear,0,2012-10-19 15:53:00
12:53 PM,75.9,50.0,40,29.82,10.0,WNW,8.1,-,N/A,,Clear,300,2012-10-19 16:53:00
1:53 PM,77.0,51.1,40,29.79,10.0,NW,6.9,-,N/A,,Clear,320,2012-10-19 17:53:00
2:53 PM,78.1,51.1,39,29.77,10.0,West,8.1,-,N/A,,Clear,280,2012-10-19 18:53:00
3:53 PM,78.1,51.1,39,29.76,10.0,West,8.1,-,N/A,,Clear,280,2012-10-19 19:53:00
4:53 PM,78.1,48.9,36,29.76,10.0,WSW,5.8,-,N/A,,Clear,250,2012-10-19 20:53:00
5:53 PM,75.0,46.0,36,29.76,10.0,WSW,5.8,-,N/A,,Clear,250,2012-10-19 21:53:00
6:53 PM,64.0,55.0,73,29.77,10.0,Calm,Calm,-,N/A,,Clear,0,2012-10-19 22:53:00
7:53 PM,64.9,48.0,54,29.78,10.0,Calm,Calm,-,N/A,,Clear,0,2012-10-19 23:53:00
8:53 PM,59.0,52.0,78,29.80,10.0,Calm,Calm,-,N/A,,Clear,0,2012-10-20 00:53:00
10:53 PM,57.0,52.0,83,29.83,10.0,Calm,Calm,-,N/A,,Clear,0,2012-10-20 02:53:00
11:53 PM,64.0,48.9,58,29.83,10.0,WSW,6.9,-,N/A,,Clear,250,2012-10-20 03:53:00